TAF

TERMINAL AERODROME FORECAST
STASIUN METEOROLOGI HANG NADIM BATAM
ADDS - METARS form results

Aviation Digital Data Service (ADDS)

Output produced by METARs form (0640 UTC 21 September 2017)
found at http://aviationweather.gov/adds/metars/
 
Forecast for: WIDD (HANG NADIM , ID)
Text: TAF WIDD 210500Z 2106/2206 18009KT 9000 SCT014
Forecast period: 0600 to 1200 UTC 21 September 2017
Forecast type: FROM: standard forecast or significant change
Winds: from the S (180 degrees) at 10 MPH (9 knots; 4.7 m/s)
Visibility: 6 miles (9 km)
Clouds: scattered clouds at 1400 feet AGL
Weather: no significant weather forecast for this period
Text: BECMG 2112/2114 00000KT
Forecast period: 1200 UTC 21 September 2017 to 0600 UTC 22 September 2017
Forecast type: BECOMING: Conditions expected to become as follows by 1400 UTC 21 September 2017
Winds: calm
Visibility: 6 miles (9 km)
Clouds: scattered clouds at 1400 feet AGL
Weather: no significant weather forecast for this period

Informasi TAF dapat diakses juga di http://aviation.bmkg.go.id